createdAt,value
2017-10-16T00:02:08.527Z,73.90
2017-10-16T00:04:36.107Z,73.10
2017-10-16T00:07:03.667Z,73.10
2017-10-16T00:09:31.229Z,73.20
2017-10-16T00:11:58.825Z,73.30
2017-10-16T00:14:26.435Z,73.90
2017-10-16T00:16:54.026Z,73.30
2017-10-16T00:19:21.641Z,73.40
2017-10-16T00:21:49.202Z,73.90
2017-10-16T00:24:16.756Z,73.80
2017-10-16T00:26:44.339Z,74.50
2017-10-16T00:29:11.932Z,73.70
2017-10-16T00:31:39.504Z,73.80
2017-10-16T00:34:07.126Z,73.20
2017-10-16T00:36:34.709Z,73.00
2017-10-16T00:39:02.266Z,72.90
2017-10-16T00:41:29.869Z,73.40
2017-10-16T00:43:57.437Z,73.30
2017-10-16T00:46:25.753Z,72.70
2017-10-16T00:48:53.347Z,72.70
2017-10-16T00:51:20.899Z,72.60
2017-10-16T00:53:48.482Z,72.50
2017-10-16T00:56:16.882Z,72.50
2017-10-16T00:58:44.475Z,72.50
2017-10-16T01:01:13.329Z,74.20
2017-10-16T01:03:40.934Z,74.20
2017-10-16T01:06:08.549Z,74.60
2017-10-16T01:08:36.113Z,74.40
2017-10-16T01:11:03.709Z,74.10
2017-10-16T01:13:32.041Z,74.80
2017-10-16T01:15:59.605Z,74.80
2017-10-16T01:18:27.198Z,74.60
2017-10-16T01:20:54.813Z,74.60
2017-10-16T01:23:22.412Z,74.10
2017-10-16T01:25:50.035Z,74.20
2017-10-16T01:28:17.642Z,74.20
2017-10-16T01:30:45.236Z,74.70
2017-10-16T01:33:13.647Z,76.40
2017-10-16T01:35:41.244Z,76.30
2017-10-16T01:38:08.816Z,75.50
2017-10-16T01:40:36.457Z,75.40
2017-10-16T01:43:04.046Z,75.30
2017-10-16T01:45:31.619Z,75.10
2017-10-16T01:47:59.221Z,74.80
2017-10-16T01:50:26.814Z,75.00
2017-10-16T01:52:54.413Z,75.50
2017-10-16T01:55:22.773Z,74.50
2017-10-16T01:57:50.394Z,74.50
2017-10-16T02:00:17.961Z,74.70
2017-10-16T02:02:45.558Z,74.60
2017-10-16T02:05:13.902Z,74.30
2017-10-16T02:07:41.456Z,74.30
2017-10-16T02:10:09.116Z,74.90
2017-10-16T02:12:36.676Z,76.60
2017-10-16T02:15:04.246Z,75.80
2017-10-16T02:17:31.829Z,75.80
2017-10-16T02:19:59.389Z,75.70
2017-10-16T02:22:26.935Z,75.80
2017-10-16T02:24:54.549Z,74.10
2017-10-16T02:27:22.122Z,75.30
2017-10-16T02:29:49.687Z,74.90
2017-10-16T02:32:17.299Z,75.60
2017-10-16T02:34:45.631Z,74.30
2017-10-16T02:37:13.196Z,74.30
2017-10-16T02:39:40.793Z,74.80
2017-10-16T02:42:08.361Z,76.00
2017-10-16T02:44:36.706Z,75.60
2017-10-16T02:47:04.302Z,75.50
2017-10-16T02:49:32.638Z,74.00
2017-10-16T02:52:00.192Z,74.00
2017-10-16T02:54:27.809Z,74.90
2017-10-16T02:56:56.126Z,74.40
2017-10-16T02:59:23.701Z,74.50
2017-10-16T03:01:51.293Z,74.60
2017-10-16T03:04:19.629Z,74.80
2017-10-16T03:06:47.210Z,74.70
2017-10-16T03:09:14.819Z,74.10
2017-10-16T03:11:42.404Z,73.80
2017-10-16T03:14:09.999Z,75.10
2017-10-16T03:16:39.970Z,75.20
2017-10-16T03:19:07.628Z,75.50
2017-10-16T03:21:35.194Z,75.40
2017-10-16T03:24:02.784Z,73.90
2017-10-16T03:26:30.359Z,75.00
2017-10-16T03:28:57.927Z,74.10
2017-10-16T03:31:26.270Z,75.20
2017-10-16T03:33:53.812Z,75.20
2017-10-16T03:36:21.352Z,75.20
2017-10-16T03:38:48.960Z,75.10
2017-10-16T03:41:16.531Z,74.80
2017-10-16T03:43:44.084Z,75.60
2017-10-16T03:46:11.673Z,75.50
2017-10-16T03:48:39.207Z,75.80
2017-10-16T03:51:06.773Z,75.80
2017-10-16T03:53:35.155Z,75.60
2017-10-16T03:56:02.721Z,75.50
2017-10-16T03:58:31.041Z,75.10
2017-10-16T04:00:58.629Z,75.10
2017-10-16T04:03:26.207Z,75.00
2017-10-16T04:05:53.777Z,75.20
2017-10-16T04:08:22.130Z,75.70
2017-10-16T04:10:49.702Z,75.80
2017-10-16T04:13:17.261Z,75.50
2017-10-16T04:15:44.869Z,76.30
2017-10-16T04:18:12.437Z,76.40
2017-10-16T04:20:39.977Z,76.30
2017-10-16T04:23:07.568Z,74.70
2017-10-16T04:25:35.111Z,75.20
2017-10-16T04:28:02.662Z,74.10
2017-10-16T04:30:30.273Z,74.90
2017-10-16T04:32:57.852Z,76.90
2017-10-16T04:35:26.175Z,76.60
2017-10-16T04:37:53.769Z,76.60
2017-10-16T04:40:24.535Z,75.90
2017-10-16T04:42:52.445Z,75.80
2017-10-16T04:45:21.459Z,76.00
2017-10-16T04:47:53.202Z,75.20
2017-10-16T04:50:24.581Z,76.30
2017-10-16T04:52:52.355Z,76.50
2017-10-16T04:55:21.874Z,75.70
2017-10-16T04:57:50.389Z,76.20
2017-10-16T05:00:18.073Z,76.10
2017-10-16T05:02:53.878Z,75.40
2017-10-16T05:05:24.790Z,75.30
2017-10-16T05:07:52.351Z,76.20
2017-10-16T05:10:20.260Z,76.10
2017-10-16T05:12:47.875Z,76.30
2017-10-16T05:15:16.327Z,75.80
2017-10-16T05:17:44.032Z,75.50
2017-10-16T05:20:12.371Z,76.40
2017-10-16T05:22:39.919Z,76.40
2017-10-16T05:25:07.463Z,76.30
2017-10-16T05:27:35.032Z,74.60
2017-10-16T05:30:02.584Z,75.20
2017-10-16T05:32:30.164Z,75.40
2017-10-16T05:34:57.733Z,74.90
2017-10-16T05:37:25.297Z,74.90
2017-10-16T05:39:52.850Z,74.90
2017-10-16T05:42:20.451Z,75.50
2017-10-16T05:44:48.047Z,75.70
2017-10-16T05:47:15.626Z,76.20
2017-10-16T05:49:43.217Z,75.70
2017-10-16T05:52:10.806Z,75.80
2017-10-16T05:54:38.368Z,76.20
2017-10-16T05:57:05.944Z,75.70
2017-10-16T05:59:33.492Z,76.00
2017-10-16T06:02:01.040Z,76.60
2017-10-16T06:04:28.630Z,77.20
2017-10-16T06:06:56.394Z,76.70
2017-10-16T06:09:24.015Z,76.80
2017-10-16T06:11:52.382Z,76.20
2017-10-16T06:14:19.944Z,76.20
2017-10-16T06:16:48.292Z,76.80
2017-10-16T06:19:15.922Z,76.80
2017-10-16T06:21:43.480Z,78.10
2017-10-16T06:24:11.088Z,79.40
2017-10-16T06:26:38.716Z,78.80
2017-10-16T06:29:06.298Z,80.50
2017-10-16T06:31:33.880Z,80.30
2017-10-16T06:34:02.266Z,80.40
2017-10-16T06:36:29.831Z,80.40
2017-10-16T06:38:58.159Z,80.00
2017-10-16T06:41:25.747Z,80.00
2017-10-16T06:43:53.365Z,79.50
2017-10-16T06:46:20.934Z,79.40
2017-10-16T06:48:48.521Z,79.00
2017-10-16T06:51:16.103Z,78.80
2017-10-16T06:53:44.471Z,77.40
2017-10-16T06:56:12.084Z,77.30
2017-10-16T06:58:39.656Z,77.60
2017-10-16T07:01:07.227Z,77.30
2017-10-16T07:03:34.858Z,76.80
2017-10-16T07:06:02.399Z,77.00
2017-10-16T07:08:29.957Z,78.10
2017-10-16T07:10:57.547Z,77.50
2017-10-16T07:13:25.129Z,77.60
2017-10-16T07:15:52.689Z,77.50
2017-10-16T07:18:20.303Z,77.40
2017-10-16T07:20:48.629Z,77.20
2017-10-16T07:23:16.196Z,77.20
2017-10-16T07:25:43.785Z,77.50
2017-10-16T07:28:13.052Z,77.70
2017-10-16T07:30:40.615Z,77.70
2017-10-16T07:33:08.222Z,78.00
2017-10-16T07:35:35.841Z,77.30
2017-10-16T07:38:03.416Z,77.60
2017-10-16T07:40:31.810Z,77.80
2017-10-16T07:43:00.149Z,77.00
2017-10-16T07:45:27.733Z,76.90
2017-10-16T07:47:56.093Z,77.50
2017-10-16T07:50:23.638Z,77.20
2017-10-16T07:52:51.192Z,76.90
2017-10-16T07:55:18.767Z,76.40
2017-10-16T07:57:46.321Z,75.80
2017-10-16T08:00:13.860Z,76.40
2017-10-16T08:02:41.437Z,76.70
2017-10-16T08:05:09.014Z,75.10
2017-10-16T08:07:36.565Z,73.60
2017-10-16T08:10:04.159Z,74.50
2017-10-16T08:12:32.497Z,73.50
2017-10-16T08:15:00.088Z,73.50
2017-10-16T08:17:28.431Z,73.10
2017-10-16T08:19:56.004Z,73.10
2017-10-16T08:22:23.631Z,70.90
2017-10-16T08:24:51.225Z,71.20
2017-10-16T08:27:18.794Z,70.80
2017-10-16T08:29:46.407Z,70.20
2017-10-16T08:32:14.117Z,70.20
2017-10-16T08:34:41.721Z,70.90
2017-10-16T08:37:09.325Z,69.80
2017-10-16T08:39:36.923Z,68.90
2017-10-16T08:42:05.343Z,64.70
2017-10-16T08:44:32.913Z,64.60
2017-10-16T08:47:00.535Z,63.20
2017-10-16T08:49:28.226Z,62.00
2017-10-16T08:51:55.818Z,61.20
2017-10-16T08:54:23.447Z,59.60
2017-10-16T08:56:51.016Z,55.80
2017-10-16T08:59:18.612Z,58.70
2017-10-16T09:01:46.217Z,58.40
2017-10-16T09:04:13.823Z,57.50
2017-10-16T09:06:41.435Z,54.90
2017-10-16T09:09:09.065Z,55.30
2017-10-16T09:11:37.436Z,52.90
2017-10-16T09:14:05.809Z,52.80
2017-10-16T09:16:33.419Z,52.60
2017-10-16T09:19:00.993Z,52.50
2017-10-16T09:21:28.605Z,52.50
2017-10-16T09:23:57.005Z,52.10
2017-10-16T09:26:24.745Z,52.10
2017-10-16T09:28:53.119Z,54.10
2017-10-16T09:31:21.519Z,51.80
2017-10-16T09:33:49.099Z,51.70
2017-10-16T09:36:16.672Z,51.30
2017-10-16T09:38:44.293Z,50.60
2017-10-16T09:41:12.671Z,50.60
2017-10-16T09:43:41.074Z,50.30
2017-10-16T09:46:08.697Z,50.30
2017-10-16T09:48:37.053Z,49.50
2017-10-16T09:51:04.630Z,49.50
2017-10-16T09:53:32.235Z,48.10
2017-10-16T09:55:59.811Z,50.40
2017-10-16T09:58:27.367Z,50.00
2017-10-16T10:00:55.004Z,50.10
2017-10-16T10:03:22.581Z,47.60
2017-10-16T10:05:50.166Z,47.50
2017-10-16T10:08:17.769Z,46.50
2017-10-16T10:10:45.354Z,45.20
2017-10-16T10:13:12.936Z,47.20
2017-10-16T10:15:40.529Z,48.40
2017-10-16T10:18:08.080Z,49.60
2017-10-16T10:20:35.627Z,49.70
2017-10-16T10:23:03.241Z,48.70
2017-10-16T10:25:30.821Z,49.40
2017-10-16T10:27:58.386Z,49.40
2017-10-16T10:30:25.976Z,48.40
2017-10-16T10:32:53.538Z,47.90
2017-10-16T10:35:21.080Z,47.90
2017-10-16T10:37:48.679Z,49.20
2017-10-16T10:40:17.010Z,48.00
2017-10-16T10:42:44.564Z,47.90
2017-10-16T10:45:12.181Z,47.30
2017-10-16T10:47:40.550Z,45.90
2017-10-16T10:50:08.887Z,46.00
2017-10-16T10:52:36.472Z,45.90
2017-10-16T10:55:04.079Z,47.70
2017-10-16T10:57:31.650Z,45.70
2017-10-16T10:59:59.260Z,44.80
2017-10-16T11:02:26.800Z,44.70
2017-10-16T11:04:54.374Z,44.80
2017-10-16T11:07:21.971Z,44.00
2017-10-16T11:09:49.567Z,40.90
2017-10-16T11:12:17.133Z,42.70
2017-10-16T11:14:44.730Z,44.50
2017-10-16T11:17:13.093Z,43.80
2017-10-16T11:19:40.702Z,43.70
2017-10-16T11:22:08.310Z,39.40
2017-10-16T11:24:35.934Z,40.40
2017-10-16T11:27:03.541Z,41.50
2017-10-16T11:29:31.255Z,37.90
2017-10-16T11:31:58.886Z,37.90
2017-10-16T11:34:27.276Z,38.90
2017-10-16T11:36:54.946Z,38.90
2017-10-16T11:39:22.522Z,42.60
2017-10-16T11:41:50.126Z,42.60
2017-10-16T11:44:17.743Z,44.00
2017-10-16T11:46:45.308Z,41.80
2017-10-16T11:49:12.889Z,41.80
2017-10-16T11:51:41.295Z,39.10
2017-10-16T11:54:09.667Z,34.40
2017-10-16T11:56:37.293Z,34.40
2017-10-16T11:59:04.923Z,35.10
2017-10-16T12:01:32.538Z,37.70
2017-10-16T12:04:00.127Z,36.70
2017-10-16T12:06:28.533Z,37.60
2017-10-16T12:08:56.129Z,37.60
2017-10-16T12:11:23.739Z,34.90
2017-10-16T12:13:51.400Z,33.00
2017-10-16T12:16:19.027Z,34.30
2017-10-16T12:18:46.609Z,36.10
2017-10-16T12:21:15.003Z,37.10
2017-10-16T12:23:42.590Z,37.00
2017-10-16T12:26:10.244Z,35.40
2017-10-16T12:28:37.865Z,36.40
2017-10-16T12:31:06.223Z,37.40
2017-10-16T12:33:33.822Z,37.40
2017-10-16T12:36:01.461Z,37.20
2017-10-16T12:38:29.845Z,39.00
2017-10-16T12:40:58.211Z,39.90
2017-10-16T12:43:25.839Z,39.90
2017-10-16T12:45:53.431Z,41.50
2017-10-16T12:48:21.049Z,38.60
2017-10-16T12:50:48.689Z,40.00
2017-10-16T12:53:16.281Z,37.70
2017-10-16T12:55:43.859Z,37.80
2017-10-16T12:58:11.490Z,42.00
2017-10-16T13:00:39.073Z,41.30
2017-10-16T13:03:06.668Z,41.70
2017-10-16T13:05:35.066Z,41.40
2017-10-16T13:08:02.661Z,41.40
2017-10-16T13:10:30.230Z,43.00
2017-10-16T13:12:57.842Z,42.70
2017-10-16T13:15:26.208Z,39.90
2017-10-16T13:17:55.339Z,37.20
2017-10-16T13:20:22.978Z,37.20
2017-10-16T13:22:50.590Z,39.60
2017-10-16T13:25:18.168Z,40.50
2017-10-16T13:27:45.781Z,40.20
2017-10-16T13:30:13.422Z,39.60
2017-10-16T13:32:41.014Z,33.60
2017-10-16T13:35:08.785Z,34.30
2017-10-16T13:37:36.398Z,33.30
2017-10-16T13:40:04.762Z,35.10
2017-10-16T13:42:32.385Z,35.10
2017-10-16T13:45:00.201Z,40.40
2017-10-16T13:47:28.544Z,37.90
2017-10-16T13:49:56.161Z,37.90
2017-10-16T13:52:23.764Z,36.80
2017-10-16T13:54:51.344Z,41.70
2017-10-16T13:57:18.957Z,41.30
2017-10-16T13:59:50.371Z,39.70
2017-10-16T14:02:18.737Z,41.70
2017-10-16T14:04:47.108Z,39.40
2017-10-16T14:07:14.680Z,39.40
2017-10-16T14:09:43.076Z,42.50
2017-10-16T14:12:11.429Z,40.30
2017-10-16T14:14:39.055Z,40.30
2017-10-16T14:17:06.662Z,41.80
2017-10-16T14:19:35.019Z,41.60
2017-10-16T14:22:02.603Z,41.60
2017-10-16T14:24:30.996Z,42.40
2017-10-16T14:26:58.563Z,42.30
2017-10-16T14:29:26.145Z,36.90
2017-10-16T14:31:53.805Z,37.50
2017-10-16T14:34:21.446Z,40.90
2017-10-16T14:36:49.058Z,38.30
2017-10-16T14:39:16.686Z,42.80
2017-10-16T14:41:45.258Z,42.20
2017-10-16T14:44:13.824Z,41.70
2017-10-16T14:46:43.004Z,43.60
2017-10-16T14:49:11.974Z,45.90
2017-10-16T14:51:40.734Z,45.20
2017-10-16T14:54:10.033Z,44.80
2017-10-16T14:56:38.446Z,45.60
2017-10-16T14:59:07.735Z,45.90
2017-10-16T15:01:35.436Z,47.30
2017-10-16T15:04:03.813Z,48.80
2017-10-16T15:06:32.177Z,48.90
2017-10-16T15:08:59.817Z,48.80
2017-10-16T15:11:27.388Z,49.60
2017-10-16T15:13:54.981Z,50.00
2017-10-16T15:16:23.371Z,51.30
2017-10-16T15:18:50.962Z,51.90
2017-10-16T15:21:18.540Z,50.40
2017-10-16T15:23:46.161Z,51.10
2017-10-16T15:26:13.767Z,52.20
2017-10-16T15:28:41.367Z,52.70
2017-10-16T15:31:09.072Z,52.00
2017-10-16T15:33:36.667Z,51.30
2017-10-16T15:36:05.659Z,52.60
2017-10-16T15:38:34.692Z,52.50
2017-10-16T15:41:03.672Z,52.80
2017-10-16T15:43:32.406Z,51.10
2017-10-16T15:46:01.427Z,53.00
2017-10-16T15:48:29.848Z,53.10
2017-10-16T15:50:59.335Z,53.70
2017-10-16T15:53:27.732Z,53.70
2017-10-16T15:55:57.764Z,53.90
2017-10-16T15:58:26.282Z,53.90
2017-10-16T16:00:55.273Z,55.00
2017-10-16T16:03:24.306Z,54.80
2017-10-16T16:05:53.120Z,54.80
2017-10-16T16:08:22.219Z,56.40
2017-10-16T16:10:52.035Z,56.50
2017-10-16T16:13:20.990Z,56.60
2017-10-16T16:15:50.142Z,57.20
2017-10-16T16:18:19.185Z,57.20
2017-10-16T16:20:47.735Z,57.40
2017-10-16T16:23:16.156Z,57.80
2017-10-16T16:25:45.452Z,57.90
2017-10-16T16:28:14.340Z,58.10
2017-10-16T16:30:43.953Z,58.70
2017-10-16T16:33:13.887Z,58.70
2017-10-16T16:35:44.005Z,59.30
2017-10-16T16:38:12.452Z,60.10
2017-10-16T16:40:41.925Z,60.60
2017-10-16T16:43:11.629Z,61.20
2017-10-16T16:45:41.127Z,61.20
2017-10-16T16:48:09.844Z,61.20
2017-10-16T16:50:39.578Z,62.20
2017-10-16T16:53:08.288Z,62.30
2017-10-16T16:55:37.384Z,62.20
2017-10-16T16:58:06.286Z,62.40
2017-10-16T17:00:34.734Z,63.70
2017-10-16T17:03:04.438Z,63.60
2017-10-16T17:05:33.693Z,63.70
2017-10-16T17:08:01.317Z,63.70
2017-10-16T17:10:28.887Z,63.70
2017-10-16T17:12:56.501Z,63.70
2017-10-16T17:15:26.139Z,63.60
2017-10-16T17:17:53.804Z,63.50
2017-10-16T17:20:21.423Z,63.50
2017-10-16T17:22:49.787Z,64.10
2017-10-16T17:25:17.369Z,64.00
2017-10-16T17:27:45.777Z,63.70
2017-10-16T17:30:13.393Z,63.70
2017-10-16T17:32:40.970Z,63.70
2017-10-16T17:35:09.414Z,63.50
2017-10-16T17:37:36.990Z,63.50
2017-10-16T17:40:04.571Z,63.40
2017-10-16T17:42:32.982Z,64.10
2017-10-16T17:45:00.581Z,63.90
2017-10-16T17:47:28.166Z,64.30
2017-10-16T17:49:56.515Z,64.40
2017-10-16T17:52:24.099Z,64.40
2017-10-16T17:54:52.494Z,64.90
2017-10-16T17:57:21.566Z,64.60
2017-10-16T17:59:49.240Z,64.70
2017-10-16T18:02:16.814Z,64.70
2017-10-16T18:04:44.452Z,64.80
2017-10-16T18:07:12.856Z,65.10
2017-10-16T18:09:40.471Z,65.10
2017-10-16T18:12:08.135Z,65.60
2017-10-16T18:14:35.713Z,65.80
2017-10-16T18:17:04.037Z,66.70
2017-10-16T18:19:31.661Z,66.70
2017-10-16T18:22:00.026Z,67.00
2017-10-16T18:24:27.620Z,67.00
2017-10-16T18:26:55.263Z,66.80
2017-10-16T18:29:23.639Z,66.40
2017-10-16T18:31:51.995Z,66.40
2017-10-16T18:34:19.622Z,66.40
2017-10-16T18:36:47.267Z,66.60
2017-10-16T18:39:14.845Z,67.20
2017-10-16T18:41:42.454Z,67.30
2017-10-16T18:44:10.809Z,66.90
2017-10-16T18:46:38.364Z,66.90
2017-10-16T18:49:05.974Z,66.60
2017-10-16T18:51:35.024Z,67.30
2017-10-16T18:54:02.649Z,67.30
2017-10-16T18:56:31.873Z,67.20
2017-10-16T18:58:59.913Z,67.60
2017-10-16T19:01:27.493Z,67.40
2017-10-16T19:03:55.617Z,67.30
2017-10-16T19:06:23.985Z,67.70
2017-10-16T19:08:51.919Z,67.60
2017-10-16T19:11:19.546Z,67.50
2017-10-16T19:13:47.169Z,68.00
2017-10-16T19:16:15.007Z,68.30
2017-10-16T19:18:43.668Z,69.00
2017-10-16T19:21:11.303Z,68.70
2017-10-16T19:23:40.071Z,68.00
2017-10-16T19:26:07.669Z,68.50
2017-10-16T19:28:35.253Z,68.90
2017-10-16T19:31:03.071Z,68.10
2017-10-16T19:33:30.763Z,68.70
2017-10-16T19:35:58.387Z,68.70
2017-10-16T19:38:26.000Z,69.20
2017-10-16T19:40:53.639Z,70.00
2017-10-16T19:43:21.221Z,69.70
2017-10-16T19:45:48.813Z,70.60
2017-10-16T19:48:16.432Z,70.60
2017-10-16T19:50:44.026Z,70.10
2017-10-16T19:53:12.697Z,69.30
2017-10-16T19:55:40.350Z,70.00
2017-10-16T19:58:07.947Z,69.80
2017-10-16T20:00:35.598Z,69.20
2017-10-16T20:03:04.148Z,69.30
2017-10-16T20:05:31.790Z,69.20
2017-10-16T20:07:59.481Z,70.40
2017-10-16T20:10:27.139Z,70.50
2017-10-16T20:12:54.769Z,70.10
2017-10-16T20:15:23.163Z,70.00
2017-10-16T20:17:50.767Z,70.00
2017-10-16T20:20:18.357Z,69.60
2017-10-16T20:22:46.820Z,70.30
2017-10-16T20:25:15.246Z,70.90
2017-10-16T20:27:43.097Z,70.90
2017-10-16T20:30:11.452Z,70.40
2017-10-16T20:32:39.294Z,70.40
2017-10-16T20:35:06.905Z,71.00
2017-10-16T20:37:35.260Z,70.90
2017-10-16T20:40:02.895Z,70.90
2017-10-16T20:42:30.496Z,70.30
2017-10-16T20:44:58.872Z,70.10
2017-10-16T20:47:27.278Z,70.00
2017-10-16T20:49:54.869Z,70.00
2017-10-16T20:52:22.452Z,70.80
2017-10-16T20:54:50.099Z,70.20
2017-10-16T20:57:17.711Z,69.50
2017-10-16T20:59:45.306Z,69.10
2017-10-16T21:02:12.917Z,69.40
2017-10-16T21:04:41.278Z,69.70
2017-10-16T21:07:08.899Z,69.40
2017-10-16T21:09:36.521Z,69.90
2017-10-16T21:12:04.125Z,70.30
2017-10-16T21:14:32.519Z,70.00
2017-10-16T21:17:00.149Z,69.90
2017-10-16T21:19:27.729Z,69.40
2017-10-16T21:21:55.315Z,69.50
2017-10-16T21:24:22.923Z,69.90
2017-10-16T21:26:50.528Z,69.80
2017-10-16T21:29:18.105Z,71.00
2017-10-16T21:31:46.474Z,71.30
2017-10-16T21:34:14.073Z,71.40
2017-10-16T21:36:41.653Z,71.30
2017-10-16T21:39:09.281Z,70.80
2017-10-16T21:41:37.674Z,70.60
2017-10-16T21:44:05.284Z,70.60
2017-10-16T21:46:32.930Z,71.80
2017-10-16T21:49:00.503Z,70.70
2017-10-16T21:51:28.126Z,70.10
2017-10-16T21:53:55.752Z,70.10
2017-10-16T21:56:24.117Z,71.00
2017-10-16T21:58:51.709Z,71.00
2017-10-16T22:01:19.296Z,71.40
2017-10-16T22:03:46.893Z,70.90
2017-10-16T22:06:14.528Z,71.90
2017-10-16T22:08:42.149Z,70.20
2017-10-16T22:11:09.744Z,70.40
2017-10-16T22:13:37.371Z,70.90
2017-10-16T22:16:05.003Z,70.40
2017-10-16T22:18:32.575Z,70.30
2017-10-16T22:21:00.197Z,69.70
2017-10-16T22:23:27.819Z,70.90
2017-10-16T22:25:55.408Z,70.20
2017-10-16T22:28:22.984Z,70.40
2017-10-16T22:30:50.639Z,70.30
2017-10-16T22:33:18.264Z,69.70
2017-10-16T22:35:45.848Z,70.50
2017-10-16T22:38:13.462Z,70.80
2017-10-16T22:40:41.047Z,69.80
2017-10-16T22:43:08.642Z,70.90
2017-10-16T22:45:36.262Z,70.30
2017-10-16T22:48:03.858Z,70.90
2017-10-16T22:50:31.431Z,70.70
2017-10-16T22:52:59.063Z,70.20
2017-10-16T22:55:26.687Z,70.60
2017-10-16T22:57:55.019Z,72.60
2017-10-16T23:00:22.656Z,72.60
2017-10-16T23:02:50.279Z,71.40
2017-10-16T23:05:17.874Z,72.40
2017-10-16T23:07:45.496Z,71.60
2017-10-16T23:10:13.089Z,70.50
2017-10-16T23:12:40.681Z,72.20
2017-10-16T23:15:08.286Z,71.50
2017-10-16T23:17:36.661Z,71.20
2017-10-16T23:20:05.036Z,70.30
2017-10-16T23:22:33.430Z,71.30
2017-10-16T23:25:01.821Z,70.70
2017-10-16T23:27:29.399Z,70.80
2017-10-16T23:29:58.589Z,70.70
2017-10-16T23:32:28.223Z,70.90
2017-10-16T23:34:55.840Z,71.10
2017-10-16T23:37:23.461Z,71.00
2017-10-16T23:39:51.076Z,70.80
2017-10-16T23:42:18.698Z,71.40
2017-10-16T23:44:46.322Z,71.80
2017-10-16T23:47:13.919Z,71.30
2017-10-16T23:49:41.514Z,72.00
2017-10-16T23:52:09.143Z,71.30
2017-10-16T23:54:36.768Z,70.70
2017-10-16T23:57:04.365Z,70.90
2017-10-16T23:59:31.972Z,70.70
